PWSweather.com
Personal Weather Stations
Station Observations
COONRAPIDS
Minneapolis, MN 55433

Minneapolis, MN 55433

Lat: 45.187721, Lon: -93.36828

Elevation: 898

Station Type: Davis Vantage Pro 2

High Low Average
Temperature 81.6°F27.6°C 42.1°F5.6°C 62.8°F17.1°C
Dew Point 43.8°F6.6°C 22.0°F-5.6°C 36.4°F2.4°C
Winds 3.5 mph 5.6 kmh Calm Calm Calm SSECalm SSE
Wind Gusts 5.8 mph9.3 kmh -- --
Humidity 89% 12% 47%
Pressure 30.09 in1019.0 mb 29.95 in1014.2 mb -
Precipitation 0.00 in0.0 mm - -
Hour Temp Dew Point Humidity Winds Wind Gusts Pressure Precip Precip Rate Daily Precip Total
12:00 AM 47.8°F8.8°C 40.9°F4.9°C 77% Calm Calm -- 30.01 in1016.3 mb - 0.00 in0.0 mm 0.00 in0.0 mm
12:10 AM 47.6°F8.7°C 41.4°F5.2°C 79% Calm Calm -- 30.01 in1016.3 mb - 0.00 in0.0 mm 0.00 in0.0 mm
12:20 AM 47.2°F8.4°C 41.0°F5.0°C 79% Calm Calm -- 30.01 in1016.3 mb - 0.00 in0.0 mm 0.00 in0.0 mm
12:30 AM 46.9°F8.3°C 41.1°F5.1°C 80% Calm Calm -- 30.02 in1016.6 mb - 0.00 in0.0 mm 0.00 in0.0 mm
12:40 AM 46.5°F8.1°C 41.0°F5.0°C 81% Calm Calm -- 30.01 in1016.3 mb - 0.00 in0.0 mm 0.00 in0.0 mm
12:50 AM 46.3°F7.9°C 40.8°F4.9°C 81% Calm Calm -- 30.01 in1016.3 mb - 0.00 in0.0 mm 0.00 in0.0 mm
01:00 AM 46.1°F7.8°C 40.9°F4.9°C 82% Calm Calm -- 30.01 in1016.3 mb - 0.00 in0.0 mm 0.00 in0.0 mm
01:10 AM 45.9°F7.7°C 40.7°F4.8°C 82% Calm Calm -- 30.02 in1016.6 mb - 0.00 in0.0 mm 0.00 in0.0 mm
01:20 AM 45.6°F7.6°C 40.7°F4.8°C 83% Calm Calm -- 30.02 in1016.6 mb - 0.00 in0.0 mm 0.00 in0.0 mm
01:30 AM 45.3°F7.4°C 40.4°F4.7°C 83% Calm Calm -- 30.02 in1016.6 mb - 0.00 in0.0 mm 0.00 in0.0 mm
01:40 AM 45.2°F7.3°C 40.7°F4.8°C 84% Calm Calm -- 30.02 in1016.6 mb - 0.00 in0.0 mm 0.00 in0.0 mm
01:50 AM 44.9°F7.2°C 40.0°F4.4°C 83% Calm Calm -- 30.02 in1016.6 mb - 0.00 in0.0 mm 0.00 in0.0 mm
02:00 AM 44.8°F7.1°C 40.3°F4.6°C 84% Calm Calm -- 30.02 in1016.6 mb - 0.00 in0.0 mm 0.00 in0.0 mm
02:10 AM 44.6°F7.0°C 40.1°F4.5°C 84% Calm Calm -- 30.03 in1016.9 mb - 0.00 in0.0 mm 0.00 in0.0 mm
02:20 AM 44.4°F6.9°C 40.2°F4.6°C 85% Calm Calm -- 30.03 in1016.9 mb - 0.00 in0.0 mm 0.00 in0.0 mm
02:30 AM 44.3°F6.8°C 40.1°F4.5°C 85% Calm Calm -- 30.03 in1016.9 mb - 0.00 in0.0 mm 0.00 in0.0 mm
02:40 AM 44.2°F6.8°C 40.0°F4.4°C 85% Calm Calm -- 30.03 in1016.9 mb - 0.00 in0.0 mm 0.00 in0.0 mm
02:50 AM 44.1°F6.7°C 40.2°F4.6°C 86% Calm Calm -- 30.03 in1016.9 mb - 0.00 in0.0 mm 0.00 in0.0 mm
03:00 AM 43.9°F6.6°C 40.0°F4.4°C 86% Calm Calm -- 30.03 in1016.9 mb - 0.00 in0.0 mm 0.00 in0.0 mm
03:10 AM 43.7°F6.5°C 39.8°F4.3°C 86% Calm Calm -- 30.03 in1016.9 mb - 0.00 in0.0 mm 0.00 in0.0 mm
03:20 AM 43.5°F6.4°C 39.6°F4.2°C 86% Calm Calm -- 30.03 in1016.9 mb - 0.00 in0.0 mm 0.00 in0.0 mm
03:30 AM 43.3°F6.3°C 39.4°F4.1°C 86% Calm Calm -- 30.04 in1017.3 mb - 0.00 in0.0 mm 0.00 in0.0 mm
03:40 AM 43.2°F6.2°C 39.3°F4.1°C 86% Calm Calm -- 30.04 in1017.3 mb - 0.00 in0.0 mm 0.00 in0.0 mm
03:50 AM 43.1°F6.2°C 39.2°F4.0°C 86% Calm Calm -- 30.04 in1017.3 mb - 0.00 in0.0 mm 0.00 in0.0 mm
04:00 AM 43.0°F6.1°C 39.1°F3.9°C 86% Calm Calm -- 30.04 in1017.3 mb - 0.00 in0.0 mm 0.00 in0.0 mm
04:10 AM 42.7°F5.9°C 39.1°F3.9°C 87% Calm Calm -- 30.04 in1017.3 mb - 0.00 in0.0 mm 0.00 in0.0 mm
04:20 AM 42.5°F5.8°C 38.6°F3.7°C 86% Calm Calm -- 30.04 in1017.3 mb - 0.00 in0.0 mm 0.00 in0.0 mm
04:30 AM 42.3°F5.7°C 38.7°F3.7°C 87% Calm Calm -- 30.04 in1017.3 mb - 0.00 in0.0 mm 0.00 in0.0 mm
04:40 AM 42.2°F5.7°C 38.6°F3.7°C 87% Calm Calm -- 30.04 in1017.3 mb - 0.00 in0.0 mm 0.00 in0.0 mm
04:50 AM 42.1°F5.6°C 38.5°F3.6°C 87% Calm Calm -- 30.04 in1017.3 mb - 0.00 in0.0 mm 0.00 in0.0 mm
05:00 AM 42.1°F5.6°C 38.5°F3.6°C 87% Calm Calm -- 30.05 in1017.6 mb - 0.00 in0.0 mm 0.00 in0.0 mm
05:10 AM 42.2°F5.7°C 38.6°F3.7°C 87% Calm Calm -- 30.05 in1017.6 mb - 0.00 in0.0 mm 0.00 in0.0 mm
05:20 AM 42.5°F5.8°C 39.2°F4.0°C 88% Calm Calm -- 30.05 in1017.6 mb - 0.00 in0.0 mm 0.00 in0.0 mm
05:30 AM 42.8°F6.0°C 39.5°F4.2°C 88% Calm Calm -- 30.05 in1017.6 mb - 0.00 in0.0 mm 0.00 in0.0 mm
05:40 AM 43.4°F6.3°C 40.1°F4.5°C 88% Calm Calm -- 30.06 in1017.9 mb - 0.00 in0.0 mm 0.00 in0.0 mm
05:50 AM 44.3°F6.8°C 41.3°F5.2°C 89% Calm Calm -- 30.06 in1017.9 mb - 0.00 in0.0 mm 0.00 in0.0 mm
06:00 AM 45.0°F7.2°C 42.0°F5.6°C 89% Calm Calm -- 30.07 in1018.3 mb - 0.00 in0.0 mm 0.00 in0.0 mm
06:10 AM 45.6°F7.6°C 42.6°F5.9°C 89% Calm Calm -- 30.07 in1018.3 mb - 0.00 in0.0 mm 0.00 in0.0 mm
06:20 AM 46.2°F7.9°C 43.1°F6.2°C 89% Calm Calm -- 30.07 in1018.3 mb - 0.00 in0.0 mm 0.00 in0.0 mm
06:30 AM 46.7°F8.2°C 43.3°F6.3°C 88% Calm Calm -- 30.07 in1018.3 mb - 0.00 in0.0 mm 0.00 in0.0 mm
06:40 AM 47.4°F8.6°C 43.8°F6.6°C 87% Calm Calm -- 30.07 in1018.3 mb - 0.00 in0.0 mm 0.00 in0.0 mm
06:50 AM 49.1°F9.5°C 43.5°F6.4°C 81% Calm Calm -- 30.07 in1018.3 mb - 0.00 in0.0 mm 0.00 in0.0 mm
07:00 AM 51.1°F10.6°C 42.8°F6.0°C 73% Calm Calm -- 30.08 in1018.6 mb - 0.00 in0.0 mm 0.00 in0.0 mm
07:10 AM 52.6°F11.4°C 42.8°F6.0°C 69% 1.2 mph NE1.9 kmh NE 2.3 mph3.7 kmh 30.07 in1018.3 mb - 0.00 in0.0 mm 0.00 in0.0 mm
07:20 AM 53.9°F12.2°C 42.8°F6.0°C 66% Calm Calm -- 30.08 in1018.6 mb - 0.00 in0.0 mm 0.00 in0.0 mm
07:30 AM 55.0°F12.8°C 41.8°F5.4°C 61% Calm Calm -- 30.08 in1018.6 mb - 0.00 in0.0 mm 0.00 in0.0 mm
07:40 AM 56.1°F13.4°C 40.6°F4.8°C 56% Calm Calm -- 30.08 in1018.6 mb - 0.00 in0.0 mm 0.00 in0.0 mm
07:50 AM 57.5°F14.2°C 41.9°F5.5°C 56% Calm Calm -- 30.08 in1018.6 mb - 0.00 in0.0 mm 0.00 in0.0 mm
08:00 AM 58.8°F14.9°C 41.2°F5.1°C 52% Calm Calm -- 30.08 in1018.6 mb - 0.00 in0.0 mm 0.00 in0.0 mm
08:10 AM 59.9°F15.5°C 40.2°F4.6°C 48% Calm Calm -- 30.08 in1018.6 mb - 0.00 in0.0 mm 0.00 in0.0 mm
08:20 AM 61.1°F16.2°C 37.8°F3.2°C 42% Calm Calm -- 30.09 in1019.0 mb - 0.00 in0.0 mm 0.00 in0.0 mm
08:30 AM 62.2°F16.8°C 40.0°F4.4°C 44% Calm Calm -- 30.08 in1018.6 mb - 0.00 in0.0 mm 0.00 in0.0 mm
08:40 AM 63.9°F17.7°C 34.9°F1.6°C 34% Calm Calm -- 30.08 in1018.6 mb - 0.00 in0.0 mm 0.00 in0.0 mm
08:50 AM 65.7°F18.7°C 35.1°F1.7°C 32% Calm Calm -- 30.08 in1018.6 mb - 0.00 in0.0 mm 0.00 in0.0 mm
09:00 AM 66.5°F19.2°C 37.3°F2.9°C 34% Calm Calm -- 30.07 in1018.3 mb - 0.00 in0.0 mm 0.00 in0.0 mm
09:10 AM 67.1°F19.5°C 35.4°F1.9°C 31% Calm Calm 1.2 mph1.9 kmh 30.07 in1018.3 mb - 0.00 in0.0 mm 0.00 in0.0 mm
09:20 AM 67.7°F19.8°C 36.0°F2.2°C 31% 1.2 mph NE1.9 kmh NE 2.3 mph3.7 kmh 30.07 in1018.3 mb - 0.00 in0.0 mm 0.00 in0.0 mm
09:30 AM 68.1°F20.1°C 35.5°F1.9°C 30% Calm Calm -- 30.07 in1018.3 mb - 0.00 in0.0 mm 0.00 in0.0 mm
09:40 AM 69.0°F20.6°C 33.6°F0.9°C 27% Calm Calm -- 30.07 in1018.3 mb - 0.00 in0.0 mm 0.00 in0.0 mm
09:50 AM 69.8°F21.0°C 33.3°F0.7°C 26% Calm Calm -- 30.07 in1018.3 mb - 0.00 in0.0 mm 0.00 in0.0 mm
10:00 AM 70.3°F21.3°C 35.6°F2.0°C 28% Calm Calm -- 30.07 in1018.3 mb - 0.00 in0.0 mm 0.00 in0.0 mm
10:10 AM 71.2°F21.8°C 35.5°F1.9°C 27% Calm Calm 2.3 mph3.7 kmh 30.06 in1017.9 mb - 0.00 in0.0 mm 0.00 in0.0 mm
10:20 AM 72.6°F22.6°C 32.7°F0.4°C 23% Calm Calm -- 30.06 in1017.9 mb - 0.00 in0.0 mm 0.00 in0.0 mm
10:30 AM 73.4°F23.0°C 32.2°F0.1°C 22% Calm Calm -- 30.06 in1017.9 mb - 0.00 in0.0 mm 0.00 in0.0 mm
10:40 AM 73.6°F23.1°C 28.8°F-1.8°C 19% Calm Calm -- 30.05 in1017.6 mb - 0.00 in0.0 mm 0.00 in0.0 mm
10:50 AM 74.1°F23.4°C 32.8°F0.4°C 22% Calm Calm -- 30.05 in1017.6 mb - 0.00 in0.0 mm 0.00 in0.0 mm
11:00 AM 74.0°F23.3°C 29.1°F-1.6°C 19% 1.2 mph WSW1.9 kmh WSW -- 30.05 in1017.6 mb - 0.00 in0.0 mm 0.00 in0.0 mm
11:10 AM 74.6°F23.7°C 30.8°F-0.7°C 20% Calm Calm 3.5 mph5.6 kmh 30.05 in1017.6 mb - 0.00 in0.0 mm 0.00 in0.0 mm
11:20 AM 74.9°F23.8°C 33.5°F0.8°C 22% 1.2 mph W1.9 kmh W 3.5 mph5.6 kmh 30.04 in1017.3 mb - 0.00 in0.0 mm 0.00 in0.0 mm
11:30 AM 75.4°F24.1°C 31.5°F-0.3°C 20% Calm Calm -- 30.04 in1017.3 mb - 0.00 in0.0 mm 0.00 in0.0 mm
11:40 AM 75.6°F24.2°C 30.4°F-0.9°C 19% 2.3 mph W3.7 kmh W 5.8 mph9.3 kmh 30.04 in1017.3 mb - 0.00 in0.0 mm 0.00 in0.0 mm
11:50 AM 75.0°F23.9°C 31.2°F-0.4°C 20% Calm Calm 3.5 mph5.6 kmh 30.04 in1017.3 mb - 0.00 in0.0 mm 0.00 in0.0 mm
12:00 PM 75.3°F24.1°C 31.4°F-0.3°C 20% Calm Calm 1.2 mph1.9 kmh 30.03 in1016.9 mb - 0.00 in0.0 mm 0.00 in0.0 mm
12:10 PM 75.8°F24.3°C 29.2°F-1.6°C 18% Calm Calm -- 30.03 in1016.9 mb - 0.00 in0.0 mm 0.00 in0.0 mm
12:20 PM 76.0°F24.4°C 29.4°F-1.4°C 18% Calm Calm -- 30.03 in1016.9 mb - 0.00 in0.0 mm 0.00 in0.0 mm
12:30 PM 76.3°F24.6°C 29.6°F-1.3°C 18% Calm Calm -- 30.03 in1016.9 mb - 0.00 in0.0 mm 0.00 in0.0 mm
12:40 PM 76.6°F24.8°C 28.5°F-1.9°C 17% Calm Calm 1.2 mph1.9 kmh 30.02 in1016.6 mb - 0.00 in0.0 mm 0.00 in0.0 mm
12:50 PM 77.2°F25.1°C 27.5°F-2.5°C 16% Calm Calm -- 30.02 in1016.6 mb - 0.00 in0.0 mm 0.00 in0.0 mm
01:00 PM 77.8°F25.4°C 32.2°F0.1°C 19% Calm Calm -- 30.02 in1016.6 mb - 0.00 in0.0 mm 0.00 in0.0 mm
01:10 PM 77.9°F25.5°C 28.1°F-2.2°C 16% Calm Calm 1.2 mph1.9 kmh 30.02 in1016.6 mb - 0.00 in0.0 mm 0.00 in0.0 mm
01:20 PM 78.1°F25.6°C 31.2°F-0.4°C 18% Calm Calm -- 30.01 in1016.3 mb - 0.00 in0.0 mm 0.00 in0.0 mm
01:30 PM 78.3°F25.7°C 33.9°F1.1°C 20% Calm Calm -- 30.01 in1016.3 mb - 0.00 in0.0 mm 0.00 in0.0 mm
01:40 PM 78.6°F25.9°C 31.5°F-0.3°C 18% Calm Calm -- 30.00 in1015.9 mb - 0.00 in0.0 mm 0.00 in0.0 mm
01:50 PM 79.2°F26.2°C 32.1°F0.1°C 18% Calm Calm -- 30.00 in1015.9 mb - 0.00 in0.0 mm 0.00 in0.0 mm
02:00 PM 79.4°F26.3°C 30.7°F-0.7°C 17% Calm Calm -- 30.00 in1015.9 mb - 0.00 in0.0 mm 0.00 in0.0 mm
02:10 PM 79.6°F26.4°C 33.7°F0.9°C 19% Calm Calm -- 30.00 in1015.9 mb - 0.00 in0.0 mm 0.00 in0.0 mm
02:20 PM 79.4°F26.3°C 30.8°F-0.7°C 17% Calm Calm -- 30.00 in1015.9 mb - 0.00 in0.0 mm 0.00 in0.0 mm
02:30 PM 79.2°F26.2°C 33.4°F0.8°C 19% 1.2 mph W1.9 kmh W 3.5 mph5.6 kmh 30.00 in1015.9 mb - 0.00 in0.0 mm 0.00 in0.0 mm
02:40 PM 78.8°F26.0°C 31.7°F-0.2°C 18% Calm Calm -- 29.99 in1015.6 mb - 0.00 in0.0 mm 0.00 in0.0 mm
02:50 PM 80.0°F26.7°C 32.6°F0.3°C 18% Calm Calm -- 29.99 in1015.6 mb - 0.00 in0.0 mm 0.00 in0.0 mm
03:00 PM 80.9°F27.2°C 39.6°F4.2°C 23% Calm Calm -- 29.99 in1015.6 mb - 0.00 in0.0 mm 0.00 in0.0 mm
03:10 PM 81.2°F27.3°C 30.7°F-0.7°C 16% Calm Calm 1.2 mph1.9 kmh 29.98 in1015.2 mb - 0.00 in0.0 mm 0.00 in0.0 mm
03:20 PM 80.2°F26.8°C 35.4°F1.9°C 20% Calm Calm -- 29.98 in1015.2 mb - 0.00 in0.0 mm 0.00 in0.0 mm
03:30 PM 79.5°F26.4°C 33.6°F0.9°C 19% Calm Calm -- 29.98 in1015.2 mb - 0.00 in0.0 mm 0.00 in0.0 mm
03:40 PM 80.1°F26.7°C 32.7°F0.4°C 18% 2.3 mph W3.7 kmh W 3.5 mph5.6 kmh 29.98 in1015.2 mb - 0.00 in0.0 mm 0.00 in0.0 mm
03:50 PM 80.7°F27.1°C 35.9°F2.2°C 20% Calm Calm -- 29.98 in1015.2 mb - 0.00 in0.0 mm 0.00 in0.0 mm
04:00 PM 81.6°F27.6°C 35.3°F1.8°C 19% Calm Calm -- 29.97 in1014.9 mb - 0.00 in0.0 mm 0.00 in0.0 mm
04:10 PM 81.1°F27.3°C 33.6°F0.9°C 18% Calm Calm -- 29.97 in1014.9 mb - 0.00 in0.0 mm 0.00 in0.0 mm
04:20 PM 81.2°F27.3°C 30.7°F-0.7°C 16% Calm Calm -- 29.97 in1014.9 mb - 0.00 in0.0 mm 0.00 in0.0 mm
04:30 PM 80.8°F27.1°C 27.2°F-2.7°C 14% Calm Calm 1.2 mph1.9 kmh 29.97 in1014.9 mb - 0.00 in0.0 mm 0.00 in0.0 mm
04:40 PM 81.1°F27.3°C 30.6°F-0.8°C 16% Calm Calm -- 29.97 in1014.9 mb - 0.00 in0.0 mm 0.00 in0.0 mm
04:50 PM 81.0°F27.2°C 30.6°F-0.8°C 16% Calm Calm -- 29.97 in1014.9 mb - 0.00 in0.0 mm 0.00 in0.0 mm
05:00 PM 80.6°F27.0°C 27.0°F-2.8°C 14% 3.5 mph WSW5.6 kmh WSW 5.8 mph9.3 kmh 29.97 in1014.9 mb - 0.00 in0.0 mm 0.00 in0.0 mm
05:10 PM 81.0°F27.2°C 29.0°F-1.7°C 15% Calm Calm -- 29.97 in1014.9 mb - 0.00 in0.0 mm 0.00 in0.0 mm
05:20 PM 81.6°F27.6°C 25.9°F-3.4°C 13% Calm Calm -- 29.97 in1014.9 mb - 0.00 in0.0 mm 0.00 in0.0 mm
05:30 PM 81.2°F27.3°C 25.7°F-3.5°C 13% Calm Calm -- 29.97 in1014.9 mb - 0.00 in0.0 mm 0.00 in0.0 mm
05:40 PM 80.7°F27.1°C 25.3°F-3.7°C 13% Calm Calm -- 29.97 in1014.9 mb - 0.00 in0.0 mm 0.00 in0.0 mm
05:50 PM 79.9°F26.6°C 22.7°F-5.2°C 12% Calm Calm -- 29.96 in1014.6 mb - 0.00 in0.0 mm 0.00 in0.0 mm
06:00 PM 78.9°F26.1°C 22.0°F-5.6°C 12% Calm Calm -- 29.96 in1014.6 mb - 0.00 in0.0 mm 0.00 in0.0 mm
06:10 PM 78.0°F25.6°C 24.9°F-3.9°C 14% Calm Calm -- 29.96 in1014.6 mb - 0.00 in0.0 mm 0.00 in0.0 mm
06:20 PM 77.1°F25.1°C 25.8°F-3.4°C 15% Calm Calm 1.2 mph1.9 kmh 29.96 in1014.6 mb - 0.00 in0.0 mm 0.00 in0.0 mm
06:30 PM 76.3°F24.6°C 25.2°F-3.8°C 15% Calm Calm -- 29.96 in1014.6 mb - 0.00 in0.0 mm 0.00 in0.0 mm
06:40 PM 76.0°F24.4°C 26.5°F-3.1°C 16% Calm Calm -- 29.96 in1014.6 mb - 0.00 in0.0 mm 0.00 in0.0 mm
06:50 PM 75.3°F24.1°C 32.6°F0.3°C 21% Calm Calm -- 29.96 in1014.6 mb - 0.00 in0.0 mm 0.00 in0.0 mm
07:00 PM 74.1°F23.4°C 32.8°F0.4°C 22% Calm Calm -- 29.96 in1014.6 mb - 0.00 in0.0 mm 0.00 in0.0 mm
07:10 PM 72.7°F22.6°C 34.8°F1.6°C 25% Calm Calm -- 29.96 in1014.6 mb - 0.00 in0.0 mm 0.00 in0.0 mm
07:20 PM 71.5°F21.9°C 35.7°F2.1°C 27% Calm Calm -- 29.96 in1014.6 mb - 0.00 in0.0 mm 0.00 in0.0 mm
07:30 PM 70.3°F21.3°C 35.7°F2.1°C 28% Calm Calm -- 29.95 in1014.2 mb - 0.00 in0.0 mm 0.00 in0.0 mm
07:40 PM 69.0°F20.6°C 37.9°F3.3°C 32% Calm Calm -- 29.96 in1014.6 mb - 0.00 in0.0 mm 0.00 in0.0 mm
07:50 PM 67.9°F19.9°C 38.5°F3.6°C 34% Calm Calm -- 29.96 in1014.6 mb - 0.00 in0.0 mm 0.00 in0.0 mm
08:00 PM 66.8°F19.3°C 39.0°F3.9°C 36% Calm Calm -- 29.96 in1014.6 mb - 0.00 in0.0 mm 0.00 in0.0 mm
08:10 PM 65.9°F18.8°C 39.6°F4.2°C 38% Calm Calm -- 29.96 in1014.6 mb - 0.00 in0.0 mm 0.00 in0.0 mm
08:20 PM 65.0°F18.3°C 39.4°F4.1°C 39% Calm Calm -- 29.96 in1014.6 mb - 0.00 in0.0 mm 0.00 in0.0 mm
08:30 PM 64.1°F17.8°C 39.9°F4.4°C 41% Calm Calm -- 29.96 in1014.6 mb - 0.00 in0.0 mm 0.00 in0.0 mm
08:40 PM 63.4°F17.4°C 39.9°F4.4°C 42% Calm Calm -- 29.96 in1014.6 mb - 0.00 in0.0 mm 0.00 in0.0 mm
08:50 PM 62.8°F17.1°C 40.0°F4.4°C 43% Calm Calm -- 29.96 in1014.6 mb - 0.00 in0.0 mm 0.00 in0.0 mm
09:00 PM 62.3°F16.8°C 40.7°F4.8°C 45% Calm Calm -- 29.96 in1014.6 mb - 0.00 in0.0 mm 0.00 in0.0 mm
09:10 PM 61.8°F16.6°C 40.8°F4.9°C 46% Calm Calm -- 29.96 in1014.6 mb - 0.00 in0.0 mm 0.00 in0.0 mm
09:20 PM 61.3°F16.3°C 40.9°F4.9°C 47% Calm Calm -- 29.97 in1014.9 mb - 0.00 in0.0 mm 0.00 in0.0 mm
09:30 PM 60.8°F16.0°C 41.0°F5.0°C 48% Calm Calm -- 29.97 in1014.9 mb - 0.00 in0.0 mm 0.00 in0.0 mm
09:40 PM 60.3°F15.7°C 41.0°F5.0°C 49% Calm Calm -- 29.97 in1014.9 mb - 0.00 in0.0 mm 0.00 in0.0 mm
09:50 PM 59.8°F15.4°C 41.1°F5.1°C 50% Calm Calm -- 29.97 in1014.9 mb - 0.00 in0.0 mm 0.00 in0.0 mm
10:00 PM 59.3°F15.2°C 41.1°F5.1°C 51% Calm Calm -- 29.97 in1014.9 mb - 0.00 in0.0 mm 0.00 in0.0 mm
10:10 PM 58.7°F14.8°C 41.6°F5.3°C 53% Calm Calm -- 29.97 in1014.9 mb - 0.00 in0.0 mm 0.00 in0.0 mm
10:20 PM 58.2°F14.6°C 41.2°F5.1°C 53% Calm Calm -- 29.97 in1014.9 mb - 0.00 in0.0 mm 0.00 in0.0 mm
10:30 PM 57.8°F14.3°C 41.7°F5.4°C 55% Calm Calm -- 29.97 in1014.9 mb - 0.00 in0.0 mm 0.00 in0.0 mm
10:40 PM 57.3°F14.1°C 41.8°F5.4°C 56% Calm Calm -- 29.97 in1014.9 mb - 0.00 in0.0 mm 0.00 in0.0 mm
10:50 PM 57.0°F13.9°C 41.9°F5.5°C 57% Calm Calm -- 29.97 in1014.9 mb - 0.00 in0.0 mm 0.00 in0.0 mm
11:00 PM 56.6°F13.7°C 41.5°F5.3°C 57% Calm Calm -- 29.97 in1014.9 mb - 0.00 in0.0 mm 0.00 in0.0 mm
11:10 PM 56.2°F13.4°C 41.6°F5.3°C 58% Calm Calm -- 29.97 in1014.9 mb - 0.00 in0.0 mm 0.00 in0.0 mm
11:20 PM 55.7°F13.2°C 42.0°F5.6°C 60% Calm Calm -- 29.97 in1014.9 mb - 0.00 in0.0 mm 0.00 in0.0 mm
11:30 PM 55.3°F12.9°C 41.6°F5.3°C 60% Calm Calm -- 29.97 in1014.9 mb - 0.00 in0.0 mm 0.00 in0.0 mm
11:40 PM 54.8°F12.7°C 41.6°F5.3°C 61% Calm Calm -- 29.97 in1014.9 mb - 0.00 in0.0 mm 0.00 in0.0 mm
11:50 PM 54.3°F12.4°C 42.4°F5.8°C 64% Calm Calm -- 29.97 in1014.9 mb - 0.00 in0.0 mm 0.00 in0.0 mm